sensor_id;sensor_type;location;lat;lon;timestamp;P1;durP1;ratioP1;P2;durP2;ratioP2
35028;SDS011;35394;54.282;10.070;2024-02-16T00:00:04;3.30;;;2.70;;
35028;SDS011;35394;54.282;10.070;2024-02-16T00:00:37;3.03;;;2.72;;
35028;SDS011;35394;54.282;10.070;2024-02-16T00:01:09;3.28;;;2.70;;
35028;SDS011;35394;54.282;10.070;2024-02-16T00:01:39;3.20;;;2.80;;
35028;SDS011;35394;54.282;10.070;2024-02-16T00:02:10;3.13;;;2.70;;
35028;SDS011;35394;54.282;10.070;2024-02-16T00:02:40;3.20;;;2.70;;
35028;SDS011;35394;54.282;10.070;2024-02-16T00:03:12;3.00;;;2.70;;
35028;SDS011;35394;54.282;10.070;2024-02-16T00:03:43;3.30;;;2.90;;
35028;SDS011;35394;54.282;10.070;2024-02-16T00:04:13;2.70;;;2.40;;
35028;SDS011;35394;54.282;10.070;2024-02-16T00:04:44;3.03;;;2.70;;
35028;SDS011;35394;54.282;10.070;2024-02-16T00:05:15;2.90;;;2.60;;
35028;SDS011;35394;54.282;10.070;2024-02-16T00:05:45;3.40;;;2.83;;
35028;SDS011;35394;54.282;10.070;2024-02-16T00:06:16;2.80;;;2.50;;
35028;SDS011;35394;54.282;10.070;2024-02-16T00:06:47;3.05;;;2.60;;
35028;SDS011;35394;54.282;10.070;2024-02-16T00:07:18;3.10;;;2.70;;
35028;SDS011;35394;54.282;10.070;2024-02-16T00:07:49;3.10;;;2.80;;
35028;SDS011;35394;54.282;10.070;2024-02-16T00:08:19;2.97;;;2.60;;
35028;SDS011;35394;54.282;10.070;2024-02-16T00:08:50;3.40;;;2.90;;
35028;SDS011;35394;54.282;10.070;2024-02-16T00:09:21;3.00;;;2.70;;
35028;SDS011;35394;54.282;10.070;2024-02-16T00:09:51;3.03;;;2.60;;
35028;SDS011;35394;54.282;10.070;2024-02-16T00:10:22;3.23;;;2.70;;
35028;SDS011;35394;54.282;10.070;2024-02-16T00:10:52;3.00;;;2.70;;
35028;SDS011;35394;54.282;10.070;2024-02-16T00:11:23;3.07;;;2.70;;
35028;SDS011;35394;54.282;10.070;2024-02-16T00:11:55;3.10;;;2.80;;
35028;SDS011;35394;54.282;10.070;2024-02-16T00:12:25;3.33;;;2.70;;
35028;SDS011;35394;54.282;10.070;2024-02-16T00:12:56;3.60;;;2.80;;
35028;SDS011;35394;54.282;10.070;2024-02-16T00:13:27;3.10;;;2.70;;
35028;SDS011;35394;54.282;10.070;2024-02-16T00:13:57;3.30;;;2.80;;
35028;SDS011;35394;54.282;10.070;2024-02-16T00:14:28;2.95;;;2.65;;
35028;SDS011;35394;54.282;10.070;2024-02-16T00:14:58;3.40;;;2.70;;
35028;SDS011;35394;54.282;10.070;2024-02-16T00:15:29;2.70;;;2.40;;
35028;SDS011;35394;54.282;10.070;2024-02-16T00:15:59;3.20;;;2.70;;
35028;SDS011;35394;54.282;10.070;2024-02-16T00:16:30;2.90;;;2.53;;
35028;SDS011;35394;54.282;10.070;2024-02-16T00:17:01;2.90;;;2.53;;
35028;SDS011;35394;54.282;10.070;2024-02-16T00:17:31;2.90;;;2.60;;
35028;SDS011;35394;54.282;10.070;2024-02-16T00:18:03;2.90;;;2.60;;
35028;SDS011;35394;54.282;10.070;2024-02-16T00:18:34;2.80;;;2.50;;
35028;SDS011;35394;54.282;10.070;2024-02-16T00:19:05;3.30;;;2.77;;
35028;SDS011;35394;54.282;10.070;2024-02-16T00:19:35;3.30;;;2.78;;
35028;SDS011;35394;54.282;10.070;2024-02-16T00:20:06;3.00;;;2.67;;
35028;SDS011;35394;54.282;10.070;2024-02-16T00:20:37;3.10;;;2.70;;
35028;SDS011;35394;54.282;10.070;2024-02-16T00:21:08;3.43;;;2.83;;
35028;SDS011;35394;54.282;10.070;2024-02-16T00:21:39;3.60;;;2.93;;
35028;SDS011;35394;54.282;10.070;2024-02-16T00:22:12;3.15;;;2.72;;
35028;SDS011;35394;54.282;10.070;2024-02-16T00:22:43;3.20;;;2.90;;
35028;SDS011;35394;54.282;10.070;2024-02-16T00:23:13;3.23;;;2.80;;
35028;SDS011;35394;54.282;10.070;2024-02-16T00:23:44;3.00;;;2.50;;
35028;SDS011;35394;54.282;10.070;2024-02-16T00:24:15;2.97;;;2.67;;
35028;SDS011;35394;54.282;10.070;2024-02-16T00:24:45;3.00;;;2.70;;
35028;SDS011;35394;54.282;10.070;2024-02-16T00:25:16;2.97;;;2.55;;
35028;SDS011;35394;54.282;10.070;2024-02-16T00:25:48;2.90;;;2.60;;
35028;SDS011;35394;54.282;10.070;2024-02-16T00:26:18;2.90;;;2.60;;
35028;SDS011;35394;54.282;10.070;2024-02-16T00:26:49;3.00;;;2.50;;
35028;SDS011;35394;54.282;10.070;2024-02-16T00:27:20;2.85;;;2.55;;
35028;SDS011;35394;54.282;10.070;2024-02-16T00:27:50;3.13;;;2.70;;
35028;SDS011;35394;54.282;10.070;2024-02-16T00:28:23;2.90;;;2.60;;
35028;SDS011;35394;54.282;10.070;2024-02-16T00:28:53;2.83;;;2.53;;
35028;SDS011;35394;54.282;10.070;2024-02-16T00:29:24;3.10;;;2.80;;
35028;SDS011;35394;54.282;10.070;2024-02-16T00:29:54;2.97;;;2.60;;
35028;SDS011;35394;54.282;10.070;2024-02-16T00:30:25;2.87;;;2.57;;
35028;SDS011;35394;54.282;10.070;2024-02-16T00:30:57;3.03;;;2.50;;
35028;SDS011;35394;54.282;10.070;2024-02-16T00:31:27;3.00;;;2.50;;
35028;SDS011;35394;54.282;10.070;2024-02-16T00:31:58;3.00;;;2.60;;
35028;SDS011;35394;54.282;10.070;2024-02-16T00:32:31;3.00;;;2.67;;
35028;SDS011;35394;54.282;10.070;2024-02-16T00:33:02;3.50;;;2.80;;
35028;SDS011;35394;54.282;10.070;2024-02-16T00:33:33;2.75;;;2.45;;
35028;SDS011;35394;54.282;10.070;2024-02-16T00:34:03;2.90;;;2.60;;
35028;SDS011;35394;54.282;10.070;2024-02-16T00:34:37;2.95;;;2.58;;
35028;SDS011;35394;54.282;10.070;2024-02-16T00:35:07;2.90;;;2.57;;
35028;SDS011;35394;54.282;10.070;2024-02-16T00:35:38;3.53;;;2.60;;
35028;SDS011;35394;54.282;10.070;2024-02-16T00:36:08;2.97;;;2.50;;
35028;SDS011;35394;54.282;10.070;2024-02-16T00:36:40;3.17;;;2.50;;
35028;SDS011;35394;54.282;10.070;2024-02-16T00:37:10;2.90;;;2.50;;
35028;SDS011;35394;54.282;10.070;2024-02-16T00:37:42;3.83;;;2.60;;
35028;SDS011;35394;54.282;10.070;2024-02-16T00:38:12;3.50;;;2.60;;
35028;SDS011;35394;54.282;10.070;2024-02-16T00:38:43;2.90;;;2.60;;
35028;SDS011;35394;54.282;10.070;2024-02-16T00:39:13;2.80;;;2.47;;
35028;SDS011;35394;54.282;10.070;2024-02-16T00:39:44;2.60;;;2.30;;
35028;SDS011;35394;54.282;10.070;2024-02-16T00:40:14;2.60;;;2.28;;
35028;SDS011;35394;54.282;10.070;2024-02-16T00:40:45;3.20;;;2.70;;
35028;SDS011;35394;54.282;10.070;2024-02-16T00:41:21;2.90;;;2.60;;
35028;SDS011;35394;54.282;10.070;2024-02-16T00:41:53;2.50;;;2.30;;
35028;SDS011;35394;54.282;10.070;2024-02-16T00:42:23;2.87;;;2.53;;
35028;SDS011;35394;54.282;10.070;2024-02-16T00:42:54;2.60;;;2.35;;
35028;SDS011;35394;54.282;10.070;2024-02-16T00:43:25;2.90;;;2.40;;
35028;SDS011;35394;54.282;10.070;2024-02-16T00:43:55;2.60;;;2.30;;
35028;SDS011;35394;54.282;10.070;2024-02-16T00:44:26;2.97;;;2.63;;
35028;SDS011;35394;54.282;10.070;2024-02-16T00:44:57;2.93;;;2.50;;
35028;SDS011;35394;54.282;10.070;2024-02-16T00:45:30;2.95;;;2.60;;
35028;SDS011;35394;54.282;10.070;2024-02-16T00:46:00;2.97;;;2.67;;
35028;SDS011;35394;54.282;10.070;2024-02-16T00:46:31;3.20;;;2.67;;
35028;SDS011;35394;54.282;10.070;2024-02-16T00:47:02;3.15;;;2.80;;
35028;SDS011;35394;54.282;10.070;2024-02-16T00:47:35;2.92;;;2.50;;
35028;SDS011;35394;54.282;10.070;2024-02-16T00:48:06;4.03;;;2.60;;
35028;SDS011;35394;54.282;10.070;2024-02-16T00:48:37;3.40;;;2.60;;
35028;SDS011;35394;54.282;10.070;2024-02-16T00:49:08;3.00;;;2.65;;
35028;SDS011;35394;54.282;10.070;2024-02-16T00:49:40;3.03;;;2.60;;
35028;SDS011;35394;54.282;10.070;2024-02-16T00:50:10;3.00;;;2.50;;
35028;SDS011;35394;54.282;10.070;2024-02-16T00:50:41;3.13;;;2.72;;
35028;SDS011;35394;54.282;10.070;2024-02-16T00:51:12;3.00;;;2.47;;
35028;SDS011;35394;54.282;10.070;2024-02-16T00:51:43;3.10;;;2.67;;
35028;SDS011;35394;54.282;10.070;2024-02-16T00:52:14;2.95;;;2.40;;
35028;SDS011;35394;54.282;10.070;2024-02-16T00:52:44;3.00;;;2.63;;
35028;SDS011;35394;54.282;10.070;2024-02-16T00:53:15;3.33;;;2.70;;
35028;SDS011;35394;54.282;10.070;2024-02-16T00:53:46;2.95;;;2.65;;
35028;SDS011;35394;54.282;10.070;2024-02-16T00:54:17;3.00;;;2.70;;
35028;SDS011;35394;54.282;10.070;2024-02-16T00:54:48;3.20;;;2.80;;
35028;SDS011;35394;54.282;10.070;2024-02-16T00:55:19;3.25;;;2.70;;
35028;SDS011;35394;54.282;10.070;2024-02-16T00:55:50;3.00;;;2.60;;
35028;SDS011;35394;54.282;10.070;2024-02-16T00:56:20;3.20;;;2.60;;
35028;SDS011;35394;54.282;10.070;2024-02-16T00:56:51;2.85;;;2.55;;
35028;SDS011;35394;54.282;10.070;2024-02-16T00:57:22;2.80;;;2.50;;
35028;SDS011;35394;54.282;10.070;2024-02-16T00:57:52;2.83;;;2.53;;
35028;SDS011;35394;54.282;10.070;2024-02-16T00:58:23;3.00;;;2.70;;
35028;SDS011;35394;54.282;10.070;2024-02-16T00:58:53;2.60;;;2.40;;
35028;SDS011;35394;54.282;10.070;2024-02-16T00:59:24;2.95;;;2.63;;
35028;SDS011;35394;54.282;10.070;2024-02-16T00:59:55;3.10;;;2.50;;
35028;SDS011;35394;54.282;10.070;2024-02-16T01:00:26;2.60;;;2.40;;
35028;SDS011;35394;54.282;10.070;2024-02-16T01:00:56;3.60;;;2.60;;
35028;SDS011;35394;54.282;10.070;2024-02-16T01:01:27;3.00;;;2.60;;
35028;SDS011;35394;54.282;10.070;2024-02-16T01:01:57;3.07;;;2.60;;
35028;SDS011;35394;54.282;10.070;2024-02-16T01:02:28;2.75;;;2.40;;
35028;SDS011;35394;54.282;10.070;2024-02-16T01:02:59;2.80;;;2.50;;
35028;SDS011;35394;54.282;10.070;2024-02-16T01:03:29;2.70;;;2.40;;
35028;SDS011;35394;54.282;10.070;2024-02-16T01:04:00;3.28;;;2.50;;
35028;SDS011;35394;54.282;10.070;2024-02-16T01:04:30;3.20;;;2.60;;
35028;SDS011;35394;54.282;10.070;2024-02-16T01:05:01;2.93;;;2.50;;
35028;SDS011;35394;54.282;10.070;2024-02-16T01:05:32;3.05;;;2.50;;
35028;SDS011;35394;54.282;10.070;2024-02-16T01:06:03;2.97;;;2.58;;
35028;SDS011;35394;54.282;10.070;2024-02-16T01:06:35;2.85;;;2.40;;
35028;SDS011;35394;54.282;10.070;2024-02-16T01:07:06;3.05;;;2.60;;
35028;SDS011;35394;54.282;10.070;2024-02-16T01:07:36;2.70;;;2.40;;
35028;SDS011;35394;54.282;10.070;2024-02-16T01:08:07;2.58;;;2.38;;
35028;SDS011;35394;54.282;10.070;2024-02-16T01:08:37;2.67;;;2.45;;
35028;SDS011;35394;54.282;10.070;2024-02-16T01:09:08;2.87;;;2.40;;
35028;SDS011;35394;54.282;10.070;2024-02-16T01:09:38;3.30;;;2.60;;
35028;SDS011;35394;54.282;10.070;2024-02-16T01:10:09;2.63;;;2.40;;
35028;SDS011;35394;54.282;10.070;2024-02-16T01:10:40;3.50;;;2.70;;
35028;SDS011;35394;54.282;10.070;2024-02-16T01:11:10;2.90;;;2.60;;
35028;SDS011;35394;54.282;10.070;2024-02-16T01:11:41;3.00;;;2.50;;
35028;SDS011;35394;54.282;10.070;2024-02-16T01:12:12;2.70;;;2.40;;
35028;SDS011;35394;54.282;10.070;2024-02-16T01:12:43;3.10;;;2.60;;
35028;SDS011;35394;54.282;10.070;2024-02-16T01:13:13;2.40;;;2.20;;
35028;SDS011;35394;54.282;10.070;2024-02-16T01:13:44;2.35;;;2.05;;
35028;SDS011;35394;54.282;10.070;2024-02-16T01:14:16;2.88;;;2.40;;
35028;SDS011;35394;54.282;10.070;2024-02-16T01:14:46;2.47;;;2.20;;
35028;SDS011;35394;54.282;10.070;2024-02-16T01:15:17;2.60;;;2.30;;
35028;SDS011;35394;54.282;10.070;2024-02-16T01:15:47;2.50;;;2.30;;
35028;SDS011;35394;54.282;10.070;2024-02-16T01:16:18;2.55;;;2.20;;
35028;SDS011;35394;54.282;10.070;2024-02-16T01:16:48;2.47;;;2.27;;
35028;SDS011;35394;54.282;10.070;2024-02-16T01:17:19;2.50;;;2.30;;
35028;SDS011;35394;54.282;10.070;2024-02-16T01:17:49;3.03;;;2.30;;
35028;SDS011;35394;54.282;10.070;2024-02-16T01:18:20;2.90;;;2.50;;
35028;SDS011;35394;54.282;10.070;2024-02-16T01:18:50;3.10;;;2.60;;
35028;SDS011;35394;54.282;10.070;2024-02-16T01:19:21;2.92;;;2.30;;
35028;SDS011;35394;54.282;10.070;2024-02-16T01:19:52;2.60;;;2.13;;
35028;SDS011;35394;54.282;10.070;2024-02-16T01:20:22;2.50;;;2.30;;
35028;SDS011;35394;54.282;10.070;2024-02-16T01:20:53;3.47;;;2.70;;
35028;SDS011;35394;54.282;10.070;2024-02-16T01:21:24;3.13;;;2.70;;
35028;SDS011;35394;54.282;10.070;2024-02-16T01:21:54;2.93;;;2.50;;
35028;SDS011;35394;54.282;10.070;2024-02-16T01:22:27;2.63;;;2.40;;
35028;SDS011;35394;54.282;10.070;2024-02-16T01:23:00;2.83;;;2.42;;
35028;SDS011;35394;54.282;10.070;2024-02-16T01:23:30;2.92;;;2.58;;
35028;SDS011;35394;54.282;10.070;2024-02-16T01:24:01;2.67;;;2.40;;
35028;SDS011;35394;54.282;10.070;2024-02-16T01:24:31;2.70;;;2.33;;
35028;SDS011;35394;54.282;10.070;2024-02-16T01:25:02;2.47;;;2.20;;
35028;SDS011;35394;54.282;10.070;2024-02-16T01:25:33;3.05;;;2.40;;
35028;SDS011;35394;54.282;10.070;2024-02-16T01:26:04;2.38;;;2.10;;
35028;SDS011;35394;54.282;10.070;2024-02-16T01:26:34;2.60;;;2.40;;
35028;SDS011;35394;54.282;10.070;2024-02-16T01:27:05;2.70;;;2.30;;
35028;SDS011;35394;54.282;10.070;2024-02-16T01:27:35;2.90;;;2.37;;
35028;SDS011;35394;54.282;10.070;2024-02-16T01:28:06;3.00;;;2.40;;
35028;SDS011;35394;54.282;10.070;2024-02-16T01:28:36;2.85;;;2.40;;
35028;SDS011;35394;54.282;10.070;2024-02-16T01:29:07;2.43;;;2.17;;
35028;SDS011;35394;54.282;10.070;2024-02-16T01:29:37;2.50;;;2.20;;
35028;SDS011;35394;54.282;10.070;2024-02-16T01:30:08;2.87;;;2.30;;
35028;SDS011;35394;54.282;10.070;2024-02-16T01:30:39;2.22;;;2.00;;
35028;SDS011;35394;54.282;10.070;2024-02-16T01:31:10;2.55;;;2.22;;
35028;SDS011;35394;54.282;10.070;2024-02-16T01:31:41;2.30;;;2.05;;
35028;SDS011;35394;54.282;10.070;2024-02-16T01:32:12;2.50;;;2.30;;
35028;SDS011;35394;54.282;10.070;2024-02-16T01:32:44;2.60;;;2.40;;
35028;SDS011;35394;54.282;10.070;2024-02-16T01:33:14;2.30;;;2.10;;
35028;SDS011;35394;54.282;10.070;2024-02-16T01:33:45;2.67;;;2.30;;
35028;SDS011;35394;54.282;10.070;2024-02-16T01:34:16;2.53;;;2.20;;
35028;SDS011;35394;54.282;10.070;2024-02-16T01:34:46;2.47;;;2.20;;
35028;SDS011;35394;54.282;10.070;2024-02-16T01:35:19;2.22;;;2.03;;
35028;SDS011;35394;54.282;10.070;2024-02-16T01:35:50;2.80;;;2.20;;
35028;SDS011;35394;54.282;10.070;2024-02-16T01:36:21;2.70;;;2.40;;
35028;SDS011;35394;54.282;10.070;2024-02-16T01:36:51;2.50;;;2.20;;
35028;SDS011;35394;54.282;10.070;2024-02-16T01:37:22;2.95;;;2.33;;
35028;SDS011;35394;54.282;10.070;2024-02-16T01:37:52;2.53;;;2.20;;
35028;SDS011;35394;54.282;10.070;2024-02-16T01:38:23;2.77;;;2.30;;
35028;SDS011;35394;54.282;10.070;2024-02-16T01:38:54;2.40;;;2.20;;
35028;SDS011;35394;54.282;10.070;2024-02-16T01:39:24;2.40;;;2.20;;
35028;SDS011;35394;54.282;10.070;2024-02-16T01:39:55;2.37;;;2.17;;
35028;SDS011;35394;54.282;10.070;2024-02-16T01:40:26;2.42;;;2.22;;
35028;SDS011;35394;54.282;10.070;2024-02-16T01:40:56;2.30;;;2.10;;
35028;SDS011;35394;54.282;10.070;2024-02-16T01:41:27;2.27;;;2.03;;
35028;SDS011;35394;54.282;10.070;2024-02-16T01:41:58;2.50;;;2.20;;
35028;SDS011;35394;54.282;10.070;2024-02-16T01:42:29;2.40;;;2.17;;
35028;SDS011;35394;54.282;10.070;2024-02-16T01:42:59;2.97;;;2.20;;
35028;SDS011;35394;54.282;10.070;2024-02-16T01:43:30;2.70;;;2.10;;
35028;SDS011;35394;54.282;10.070;2024-02-16T01:44:01;2.63;;;2.22;;
35028;SDS011;35394;54.282;10.070;2024-02-16T01:44:31;2.55;;;2.10;;
35028;SDS011;35394;54.282;10.070;2024-02-16T01:45:02;2.30;;;2.10;;
35028;SDS011;35394;54.282;10.070;2024-02-16T01:45:33;2.33;;;2.13;;
35028;SDS011;35394;54.282;10.070;2024-02-16T01:46:03;2.25;;;2.05;;
35028;SDS011;35394;54.282;10.070;2024-02-16T01:46:34;2.50;;;2.10;;
35028;SDS011;35394;54.282;10.070;2024-02-16T01:47:05;2.10;;;1.90;;
35028;SDS011;35394;54.282;10.070;2024-02-16T01:47:39;2.40;;;2.20;;
35028;SDS011;35394;54.282;10.070;2024-02-16T01:48:13;2.60;;;2.20;;
35028;SDS011;35394;54.282;10.070;2024-02-16T01:48:44;2.30;;;2.10;;
35028;SDS011;35394;54.282;10.070;2024-02-16T01:49:14;2.13;;;1.92;;
35028;SDS011;35394;54.282;10.070;2024-02-16T01:49:45;2.30;;;2.10;;
35028;SDS011;35394;54.282;10.070;2024-02-16T01:50:16;2.20;;;2.00;;
35028;SDS011;35394;54.282;10.070;2024-02-16T01:50:48;2.35;;;2.10;;
35028;SDS011;35394;54.282;10.070;2024-02-16T01:51:19;2.10;;;1.90;;
35028;SDS011;35394;54.282;10.070;2024-02-16T01:51:50;2.10;;;1.90;;
35028;SDS011;35394;54.282;10.070;2024-02-16T01:52:20;2.60;;;2.10;;
35028;SDS011;35394;54.282;10.070;2024-02-16T01:52:51;2.20;;;2.00;;
35028;SDS011;35394;54.282;10.070;2024-02-16T01:53:22;1.92;;;1.83;;
35028;SDS011;35394;54.282;10.070;2024-02-16T01:53:53;2.22;;;2.00;;
35028;SDS011;35394;54.282;10.070;2024-02-16T01:54:25;2.60;;;1.97;;
35028;SDS011;35394;54.282;10.070;2024-02-16T01:54:56;2.20;;;2.00;;
35028;SDS011;35394;54.282;10.070;2024-02-16T01:55:27;2.40;;;2.20;;
35028;SDS011;35394;54.282;10.070;2024-02-16T01:55:58;2.27;;;2.07;;
35028;SDS011;35394;54.282;10.070;2024-02-16T01:56:29;2.58;;;2.22;;
35028;SDS011;35394;54.282;10.070;2024-02-16T01:56:59;2.40;;;2.10;;
35028;SDS011;35394;54.282;10.070;2024-02-16T01:57:31;2.28;;;2.08;;
35028;SDS011;35394;54.282;10.070;2024-02-16T01:58:02;2.40;;;2.20;;
35028;SDS011;35394;54.282;10.070;2024-02-16T01:58:33;2.17;;;1.98;;
35028;SDS011;35394;54.282;10.070;2024-02-16T01:59:04;2.77;;;2.30;;
35028;SDS011;35394;54.282;10.070;2024-02-16T01:59:35;2.60;;;2.08;;
35028;SDS011;35394;54.282;10.070;2024-02-16T02:00:07;2.38;;;2.10;;
35028;SDS011;35394;54.282;10.070;2024-02-16T02:00:37;2.80;;;2.47;;
35028;SDS011;35394;54.282;10.070;2024-02-16T02:01:09;2.30;;;2.00;;
35028;SDS011;35394;54.282;10.070;2024-02-16T02:01:39;2.30;;;2.10;;
35028;SDS011;35394;54.282;10.070;2024-02-16T02:02:10;2.20;;;2.00;;
35028;SDS011;35394;54.282;10.070;2024-02-16T02:02:41;2.47;;;2.22;;
35028;SDS011;35394;54.282;10.070;2024-02-16T02:03:14;2.58;;;2.10;;
35028;SDS011;35394;54.282;10.070;2024-02-16T02:03:48;2.40;;;2.20;;
35028;SDS011;35394;54.282;10.070;2024-02-16T02:04:18;2.90;;;2.30;;
35028;SDS011;35394;54.282;10.070;2024-02-16T02:04:50;2.50;;;2.13;;
35028;SDS011;35394;54.282;10.070;2024-02-16T02:05:20;2.38;;;2.17;;
35028;SDS011;35394;54.282;10.070;2024-02-16T02:05:51;3.00;;;2.40;;
35028;SDS011;35394;54.282;10.070;2024-02-16T02:06:24;2.80;;;2.28;;
35028;SDS011;35394;54.282;10.070;2024-02-16T02:06:55;2.53;;;2.20;;
35028;SDS011;35394;54.282;10.070;2024-02-16T02:07:26;2.50;;;2.30;;
35028;SDS011;35394;54.282;10.070;2024-02-16T02:07:57;3.53;;;2.60;;
35028;SDS011;35394;54.282;10.070;2024-02-16T02:08:27;3.00;;;2.30;;
35028;SDS011;35394;54.282;10.070;2024-02-16T02:08:58;2.90;;;2.40;;
35028;SDS011;35394;54.282;10.070;2024-02-16T02:09:29;2.30;;;2.10;;
35028;SDS011;35394;54.282;10.070;2024-02-16T02:09:59;2.88;;;2.25;;
35028;SDS011;35394;54.282;10.070;2024-02-16T02:10:30;2.67;;;2.20;;
35028;SDS011;35394;54.282;10.070;2024-02-16T02:11:00;2.70;;;2.40;;
35028;SDS011;35394;54.282;10.070;2024-02-16T02:11:32;3.05;;;2.40;;
35028;SDS011;35394;54.282;10.070;2024-02-16T02:12:03;2.45;;;2.20;;
35028;SDS011;35394;54.282;10.070;2024-02-16T02:12:33;2.30;;;2.10;;
35028;SDS011;35394;54.282;10.070;2024-02-16T02:13:04;2.20;;;2.00;;
35028;SDS011;35394;54.282;10.070;2024-02-16T02:13:35;2.60;;;2.20;;
35028;SDS011;35394;54.282;10.070;2024-02-16T02:14:05;2.30;;;2.10;;
35028;SDS011;35394;54.282;10.070;2024-02-16T02:14:36;2.45;;;2.10;;
35028;SDS011;35394;54.282;10.070;2024-02-16T02:15:07;2.38;;;2.00;;
35028;SDS011;35394;54.282;10.070;2024-02-16T02:15:38;2.13;;;1.92;;
35028;SDS011;35394;54.282;10.070;2024-02-16T02:16:09;2.40;;;2.00;;
35028;SDS011;35394;54.282;10.070;2024-02-16T02:16:40;2.58;;;1.95;;
35028;SDS011;35394;54.282;10.070;2024-02-16T02:17:11;2.20;;;2.00;;
35028;SDS011;35394;54.282;10.070;2024-02-16T02:17:42;2.58;;;2.10;;
35028;SDS011;35394;54.282;10.070;2024-02-16T02:18:12;2.20;;;2.00;;
35028;SDS011;35394;54.282;10.070;2024-02-16T02:18:44;2.50;;;2.00;;
35028;SDS011;35394;54.282;10.070;2024-02-16T02:19:14;2.13;;;1.90;;
35028;SDS011;35394;54.282;10.070;2024-02-16T02:19:45;2.27;;;1.93;;
35028;SDS011;35394;54.282;10.070;2024-02-16T02:20:16;2.10;;;1.85;;
35028;SDS011;35394;54.282;10.070;2024-02-16T02:20:47;1.90;;;1.80;;
35028;SDS011;35394;54.282;10.070;2024-02-16T02:21:17;2.35;;;2.00;;
35028;SDS011;35394;54.282;10.070;2024-02-16T02:21:48;2.33;;;1.90;;
35028;SDS011;35394;54.282;10.070;2024-02-16T02:22:20;2.08;;;1.80;;
35028;SDS011;35394;54.282;10.070;2024-02-16T02:22:51;2.40;;;2.00;;
35028;SDS011;35394;54.282;10.070;2024-02-16T02:23:22;2.10;;;1.90;;
35028;SDS011;35394;54.282;10.070;2024-02-16T02:23:52;2.08;;;1.88;;
35028;SDS011;35394;54.282;10.070;2024-02-16T02:24:23;2.10;;;1.90;;
35028;SDS011;35394;54.282;10.070;2024-02-16T02:24:54;2.47;;;1.93;;
35028;SDS011;35394;54.282;10.070;2024-02-16T02:25:27;2.00;;;1.80;;
35028;SDS011;35394;54.282;10.070;2024-02-16T02:25:58;2.15;;;1.95;;
35028;SDS011;35394;54.282;10.070;2024-02-16T02:26:29;2.17;;;1.98;;
35028;SDS011;35394;54.282;10.070;2024-02-16T02:26:59;2.13;;;1.90;;
35028;SDS011;35394;54.282;10.070;2024-02-16T02:27:30;2.40;;;1.80;;
35028;SDS011;35394;54.282;10.070;2024-02-16T02:28:01;2.03;;;1.83;;
35028;SDS011;35394;54.282;10.070;2024-02-16T02:28:33;2.05;;;1.80;;
35028;SDS011;35394;54.282;10.070;2024-02-16T02:29:04;2.10;;;1.90;;
35028;SDS011;35394;54.282;10.070;2024-02-16T02:29:34;2.10;;;1.87;;
35028;SDS011;35394;54.282;10.070;2024-02-16T02:30:05;1.92;;;1.60;;
35028;SDS011;35394;54.282;10.070;2024-02-16T02:30:36;2.00;;;1.80;;
35028;SDS011;35394;54.282;10.070;2024-02-16T02:31:08;1.80;;;1.67;;
35028;SDS011;35394;54.282;10.070;2024-02-16T02:31:39;2.05;;;1.85;;
35028;SDS011;35394;54.282;10.070;2024-02-16T02:32:10;1.80;;;1.70;;
35028;SDS011;35394;54.282;10.070;2024-02-16T02:32:43;1.90;;;1.70;;
35028;SDS011;35394;54.282;10.070;2024-02-16T02:33:13;2.50;;;1.80;;
35028;SDS011;35394;54.282;10.070;2024-02-16T02:33:44;2.10;;;1.90;;
35028;SDS011;35394;54.282;10.070;2024-02-16T02:34:14;2.17;;;1.80;;
35028;SDS011;35394;54.282;10.070;2024-02-16T02:34:45;2.00;;;1.80;;
35028;SDS011;35394;54.282;10.070;2024-02-16T02:35:16;1.80;;;1.70;;
35028;SDS011;35394;54.282;10.070;2024-02-16T02:35:47;2.10;;;1.90;;
35028;SDS011;35394;54.282;10.070;2024-02-16T02:36:18;2.03;;;1.83;;
35028;SDS011;35394;54.282;10.070;2024-02-16T02:36:48;1.97;;;1.60;;
35028;SDS011;35394;54.282;10.070;2024-02-16T02:37:19;1.90;;;1.70;;
35028;SDS011;35394;54.282;10.070;2024-02-16T02:37:49;2.07;;;1.87;;
35028;SDS011;35394;54.282;10.070;2024-02-16T02:38:20;1.98;;;1.77;;
35028;SDS011;35394;54.282;10.070;2024-02-16T02:38:50;2.53;;;1.80;;
35028;SDS011;35394;54.282;10.070;2024-02-16T02:39:21;2.25;;;2.00;;
35028;SDS011;35394;54.282;10.070;2024-02-16T02:39:51;2.90;;;1.97;;
35028;SDS011;35394;54.282;10.070;2024-02-16T02:40:22;2.25;;;2.00;;
35028;SDS011;35394;54.282;10.070;2024-02-16T02:40:52;2.40;;;2.20;;
35028;SDS011;35394;54.282;10.070;2024-02-16T02:41:23;2.40;;;1.80;;
35028;SDS011;35394;54.282;10.070;2024-02-16T02:41:53;2.30;;;2.07;;
35028;SDS011;35394;54.282;10.070;2024-02-16T02:42:24;2.42;;;1.70;;
35028;SDS011;35394;54.282;10.070;2024-02-16T02:42:54;3.10;;;2.10;;
35028;SDS011;35394;54.282;10.070;2024-02-16T02:43:25;2.33;;;1.90;;
35028;SDS011;35394;54.282;10.070;2024-02-16T02:43:55;2.50;;;2.10;;
35028;SDS011;35394;54.282;10.070;2024-02-16T02:44:26;2.30;;;1.90;;
35028;SDS011;35394;54.282;10.070;2024-02-16T02:44:57;1.90;;;1.70;;
35028;SDS011;35394;54.282;10.070;2024-02-16T02:45:27;2.50;;;1.80;;
35028;SDS011;35394;54.282;10.070;2024-02-16T02:45:58;2.83;;;1.80;;
35028;SDS011;35394;54.282;10.070;2024-02-16T02:46:28;2.10;;;1.90;;
35028;SDS011;35394;54.282;10.070;2024-02-16T02:46:59;2.10;;;1.90;;
35028;SDS011;35394;54.282;10.070;2024-02-16T02:47:29;2.13;;;1.90;;
35028;SDS011;35394;54.282;10.070;2024-02-16T02:48:00;1.70;;;1.60;;
35028;SDS011;35394;54.282;10.070;2024-02-16T02:48:30;2.20;;;2.00;;
35028;SDS011;35394;54.282;10.070;2024-02-16T02:49:01;2.15;;;1.90;;
35028;SDS011;35394;54.282;10.070;2024-02-16T02:49:33;2.47;;;1.90;;
35028;SDS011;35394;54.282;10.070;2024-02-16T02:50:05;2.17;;;1.90;;
35028;SDS011;35394;54.282;10.070;2024-02-16T02:50:36;2.05;;;1.80;;
35028;SDS011;35394;54.282;10.070;2024-02-16T02:51:06;2.07;;;1.83;;
35028;SDS011;35394;54.282;10.070;2024-02-16T02:51:37;2.03;;;1.83;;
35028;SDS011;35394;54.282;10.070;2024-02-16T02:52:08;2.07;;;1.70;;
35028;SDS011;35394;54.282;10.070;2024-02-16T02:52:39;1.70;;;1.60;;
35028;SDS011;35394;54.282;10.070;2024-02-16T02:53:09;1.90;;;1.70;;
35028;SDS011;35394;54.282;10.070;2024-02-16T02:53:40;1.88;;;1.70;;
35028;SDS011;35394;54.282;10.070;2024-02-16T02:54:11;1.85;;;1.73;;
35028;SDS011;35394;54.282;10.070;2024-02-16T02:54:41;1.97;;;1.77;;
35028;SDS011;35394;54.282;10.070;2024-02-16T02:55:12;2.05;;;1.77;;
35028;SDS011;35394;54.282;10.070;2024-02-16T02:55:43;2.17;;;1.90;;
35028;SDS011;35394;54.282;10.070;2024-02-16T02:56:13;1.90;;;1.70;;
35028;SDS011;35394;54.282;10.070;2024-02-16T02:56:44;2.03;;;1.80;;
35028;SDS011;35394;54.282;10.070;2024-02-16T02:57:14;1.77;;;1.67;;
35028;SDS011;35394;54.282;10.070;2024-02-16T02:57:45;1.90;;;1.60;;
35028;SDS011;35394;54.282;10.070;2024-02-16T02:58:15;1.90;;;1.70;;
35028;SDS011;35394;54.282;10.070;2024-02-16T02:58:47;1.80;;;1.70;;
35028;SDS011;35394;54.282;10.070;2024-02-16T02:59:18;1.60;;;1.50;;
35028;SDS011;35394;54.282;10.070;2024-02-16T02:59:48;2.27;;;1.87;;
35028;SDS011;35394;54.282;10.070;2024-02-16T03:00:19;2.70;;;1.83;;
35028;SDS011;35394;54.282;10.070;2024-02-16T03:00:49;2.20;;;1.90;;
35028;SDS011;35394;54.282;10.070;2024-02-16T03:01:20;2.03;;;1.83;;
35028;SDS011;35394;54.282;10.070;2024-02-16T03:01:52;2.13;;;1.92;;
35028;SDS011;35394;54.282;10.070;2024-02-16T03:02:22;2.10;;;1.90;;
35028;SDS011;35394;54.282;10.070;2024-02-16T03:02:53;2.90;;;2.10;;